createdAt,value
2017-12-15T00:01:04.637Z,94207.31
2017-12-15T00:03:32.236Z,94211.56
2017-12-15T00:05:59.799Z,94207.13
2017-12-15T00:08:27.351Z,94185.64
2017-12-15T00:10:54.953Z,94175.67
2017-12-15T00:13:22.760Z,94182.27
2017-12-15T00:15:50.313Z,94176.88
2017-12-15T00:18:17.911Z,94170.54
2017-12-15T00:20:45.477Z,94167.23
2017-12-15T00:23:14.088Z,94160.05
2017-12-15T00:25:41.673Z,94158.98
2017-12-15T00:28:09.352Z,94155.72
2017-12-15T00:30:36.900Z,94155.72
2017-12-15T00:33:04.545Z,94146.58
2017-12-15T00:35:32.087Z,94146.42
2017-12-15T00:37:59.638Z,94148.20
2017-12-15T00:40:27.217Z,94158.94
2017-12-15T00:42:54.760Z,94165.23
2017-12-15T00:45:22.326Z,94170.02
2017-12-15T00:47:49.905Z,94166.83
2017-12-15T00:50:17.460Z,94161.20
2017-12-15T00:52:45.016Z,94158.05
2017-12-15T00:55:12.750Z,94153.11
2017-12-15T00:57:40.302Z,94139.77
2017-12-15T01:00:07.867Z,94133.64
2017-12-15T01:02:35.492Z,94137.27
2017-12-15T01:05:03.113Z,94160.67
2017-12-15T01:07:30.683Z,94161.05
2017-12-15T01:09:58.272Z,94164.20
2017-12-15T01:12:25.847Z,94166.28
2017-12-15T01:14:53.438Z,94162.69
2017-12-15T01:17:21.046Z,94157.61
2017-12-15T01:19:48.644Z,94161.69
2017-12-15T01:22:16.211Z,94166.45
2017-12-15T01:24:43.788Z,94160.72
2017-12-15T01:27:12.063Z,94155.38
2017-12-15T01:29:39.634Z,94157.20
2017-12-15T01:32:07.220Z,94156.69
2017-12-15T01:34:34.907Z,94156.61
2017-12-15T01:37:02.450Z,94146.46
2017-12-15T01:39:30.005Z,94152.83
2017-12-15T01:41:57.626Z,94152.38
2017-12-15T01:44:25.173Z,94154.90
2017-12-15T01:46:52.742Z,94153.50
2017-12-15T01:49:20.610Z,94155.09
2017-12-15T01:51:48.201Z,94155.09
2017-12-15T01:54:15.776Z,94147.87
2017-12-15T01:56:43.426Z,94138.72
2017-12-15T01:59:11.068Z,94133.35
2017-12-15T02:01:38.702Z,94122.34
2017-12-15T02:04:06.351Z,94122.58
2017-12-15T02:06:33.904Z,94127.02
2017-12-15T02:09:01.461Z,94127.46
2017-12-15T02:11:29.037Z,94125.34
2017-12-15T02:13:56.586Z,94127.39
2017-12-15T02:16:24.235Z,94121.98
2017-12-15T02:18:51.865Z,94124.47
2017-12-15T02:21:19.637Z,94120.13
2017-12-15T02:23:50.121Z,94122.06
2017-12-15T02:26:17.703Z,94116.80
2017-12-15T02:28:45.270Z,94123.39
2017-12-15T02:31:12.997Z,94102.39
2017-12-15T02:33:40.569Z,94101.88
2017-12-15T02:36:08.118Z,94108.14
2017-12-15T02:38:35.666Z,94116.50
2017-12-15T02:41:03.251Z,94118.83
2017-12-15T02:43:33.741Z,94114.27
2017-12-15T02:46:01.291Z,94111.58
2017-12-15T02:48:28.928Z,94099.17
2017-12-15T02:50:56.894Z,94090.51
2017-12-15T02:53:24.884Z,94079.00
2017-12-15T02:55:52.464Z,94070.89
2017-12-15T02:58:20.021Z,94070.30
2017-12-15T03:00:47.637Z,94076.59
2017-12-15T03:03:15.200Z,94085.54
2017-12-15T03:05:42.743Z,94084.98
2017-12-15T03:08:10.351Z,94078.20
2017-12-15T03:10:40.393Z,94079.75
2017-12-15T03:13:08.019Z,94088.63
2017-12-15T03:15:35.661Z,94082.80
2017-12-15T03:18:03.271Z,94078.42
2017-12-15T03:20:30.823Z,94075.67
2017-12-15T03:22:58.399Z,94070.80
2017-12-15T03:25:25.942Z,94071.01
2017-12-15T03:27:53.486Z,94068.32
2017-12-15T03:30:21.056Z,94069.33
2017-12-15T03:32:49.194Z,94068.44
2017-12-15T03:35:16.772Z,94064.89
2017-12-15T03:37:44.470Z,94058.13
2017-12-15T03:40:12.048Z,94048.43
2017-12-15T03:42:40.527Z,94052.69
2017-12-15T03:45:09.155Z,94051.52
2017-12-15T03:47:36.706Z,94056.37
2017-12-15T03:50:05.208Z,94065.50
2017-12-15T03:52:33.813Z,94064.90
2017-12-15T03:55:01.359Z,94061.25
2017-12-15T03:57:44.002Z,94044.67
2017-12-15T04:00:11.551Z,94047.76
2017-12-15T04:02:39.148Z,94044.77
2017-12-15T04:05:06.705Z,94047.53
2017-12-15T04:07:35.032Z,94049.67
2017-12-15T04:10:02.602Z,94055.05
2017-12-15T04:12:30.165Z,94064.37
2017-12-15T04:14:57.722Z,94065.19
2017-12-15T04:17:25.939Z,94066.53
2017-12-15T04:19:53.513Z,94070.02
2017-12-15T04:22:21.062Z,94072.08
2017-12-15T04:24:48.677Z,94087.55
2017-12-15T04:27:16.236Z,94093.07
2017-12-15T04:29:43.827Z,94099.69
2017-12-15T04:32:11.439Z,94103.13
2017-12-15T04:34:39.022Z,94099.84
2017-12-15T04:37:06.618Z,94111.51
2017-12-15T04:39:34.218Z,94121.83
2017-12-15T04:42:01.754Z,94122.28
2017-12-15T04:44:29.326Z,94134.05
2017-12-15T04:46:56.911Z,94142.53
2017-12-15T04:49:27.542Z,94152.86
2017-12-15T04:51:55.099Z,94143.75
2017-12-15T04:54:22.700Z,94152.53
2017-12-15T04:56:50.295Z,94158.34
2017-12-15T04:59:17.855Z,94157.79
2017-12-15T05:01:45.479Z,94167.72
2017-12-15T05:04:13.046Z,94169.61
2017-12-15T05:06:40.617Z,94181.95
2017-12-15T05:09:08.206Z,94193.35
2017-12-15T05:11:35.780Z,94198.50
2017-12-15T05:14:03.360Z,94203.55
2017-12-15T05:16:30.977Z,94208.77
2017-12-15T05:19:00.130Z,94221.61
2017-12-15T05:21:32.039Z,94224.42
2017-12-15T05:24:00.448Z,94232.05
2017-12-15T05:26:28.596Z,94232.26
2017-12-15T05:28:56.278Z,94241.42
2017-12-15T05:31:23.841Z,94234.67
2017-12-15T05:33:51.383Z,94235.92
2017-12-15T05:36:18.973Z,94234.45
2017-12-15T05:38:46.568Z,94233.39
2017-12-15T05:41:14.210Z,94244.51
2017-12-15T05:43:41.774Z,94250.36
2017-12-15T05:46:09.321Z,94270.39
2017-12-15T05:48:36.898Z,94276.63
2017-12-15T05:51:04.479Z,94273.49
2017-12-15T05:53:32.036Z,94272.11
2017-12-15T05:55:59.579Z,94259.83
2017-12-15T05:58:27.162Z,94249.41
2017-12-15T06:00:54.721Z,94249.64
2017-12-15T06:03:22.421Z,94243.44
2017-12-15T06:05:50.020Z,94243.52
2017-12-15T06:08:17.575Z,94240.67
2017-12-15T06:10:45.127Z,94240.17
2017-12-15T06:13:13.256Z,94238.80
2017-12-15T06:15:40.793Z,94242.50
2017-12-15T06:18:08.337Z,94243.33
2017-12-15T06:20:35.870Z,94249.08
2017-12-15T06:23:03.417Z,94257.36
2017-12-15T06:25:30.951Z,94261.45
2017-12-15T06:27:58.535Z,94255.05
2017-12-15T06:30:26.109Z,94251.23
2017-12-15T06:32:53.653Z,94252.73
2017-12-15T06:35:21.228Z,94256.32
2017-12-15T06:37:48.789Z,94255.45
2017-12-15T06:40:16.344Z,94255.50
2017-12-15T06:42:44.582Z,94248.28
2017-12-15T06:45:13.105Z,94259.13
2017-12-15T06:47:41.053Z,94251.16
2017-12-15T06:50:08.645Z,94255.18
2017-12-15T06:52:38.282Z,94248.34
2017-12-15T06:55:06.096Z,94250.74
2017-12-15T06:57:33.932Z,94259.24
2017-12-15T07:00:01.492Z,94250.41
2017-12-15T07:02:29.064Z,94253.66
2017-12-15T07:04:56.622Z,94262.53
2017-12-15T07:07:24.748Z,94262.53
2017-12-15T07:09:52.323Z,94267.62
2017-12-15T07:12:20.276Z,94242.33
2017-12-15T07:14:47.831Z,94268.67
2017-12-15T07:17:15.431Z,94265.86
2017-12-15T07:19:43.238Z,94272.72
2017-12-15T07:22:11.266Z,94272.25
2017-12-15T07:24:39.524Z,94271.47
2017-12-15T07:27:07.218Z,94250.78
2017-12-15T07:29:35.971Z,94263.51
2017-12-15T07:32:03.604Z,94255.53
2017-12-15T07:34:31.396Z,94263.72
2017-12-15T07:36:59.019Z,94267.78
2017-12-15T07:39:26.555Z,94270.16
2017-12-15T07:41:54.115Z,94274.27
2017-12-15T07:44:21.680Z,94270.86
2017-12-15T07:46:50.191Z,94275.80
2017-12-15T07:49:18.405Z,94284.43
2017-12-15T07:51:46.049Z,94280.47
2017-12-15T07:54:13.661Z,94281.43
2017-12-15T07:56:41.209Z,94285.10
2017-12-15T07:59:08.742Z,94287.64
2017-12-15T08:01:36.436Z,94304.16
2017-12-15T08:04:04.014Z,94315.69
2017-12-15T08:06:31.586Z,94325.95
2017-12-15T08:08:59.203Z,94327.78
2017-12-15T08:11:27.616Z,94324.98
2017-12-15T08:13:55.144Z,94294.73
2017-12-15T08:16:23.271Z,94325.85
2017-12-15T08:18:50.850Z,94322.49
2017-12-15T08:21:19.118Z,94335.84
2017-12-15T08:23:46.712Z,94337.84
2017-12-15T08:26:14.481Z,94351.91
2017-12-15T08:28:42.024Z,94339.02
2017-12-15T08:31:10.087Z,94350.16
2017-12-15T08:33:37.697Z,94369.36
2017-12-15T08:36:05.390Z,94335.69
2017-12-15T08:38:32.988Z,94358.14
2017-12-15T08:41:00.536Z,94371.84
2017-12-15T08:43:28.099Z,94371.61
2017-12-15T08:45:55.701Z,94382.59
2017-12-15T08:48:23.298Z,94368.95
2017-12-15T08:50:50.843Z,94373.36
2017-12-15T08:53:18.516Z,94379.91
2017-12-15T08:55:46.068Z,94399.98
2017-12-15T08:58:13.636Z,94397.73
2017-12-15T09:00:41.223Z,94399.80
2017-12-15T09:03:08.955Z,94390.25
2017-12-15T09:05:37.416Z,94388.45
2017-12-15T09:08:05.132Z,94391.39
2017-12-15T09:10:32.690Z,94380.17
2017-12-15T09:13:00.277Z,94371.60
2017-12-15T09:15:27.844Z,94370.75
2017-12-15T09:17:55.479Z,94383.66
2017-12-15T09:20:23.053Z,94378.30
2017-12-15T09:22:50.621Z,94375.44
2017-12-15T09:25:18.166Z,94384.19
2017-12-15T09:27:45.746Z,94378.13
2017-12-15T09:30:13.343Z,94366.61
2017-12-15T09:32:40.971Z,94375.27
2017-12-15T09:35:08.549Z,94363.08
2017-12-15T09:37:36.371Z,94367.72
2017-12-15T09:40:03.936Z,94345.14
2017-12-15T09:42:31.746Z,94346.83
2017-12-15T09:44:59.316Z,94354.25
2017-12-15T09:47:27.240Z,94371.31
2017-12-15T09:49:54.800Z,94374.20
2017-12-15T09:52:23.441Z,94370.67
2017-12-15T09:54:51.040Z,94380.18
2017-12-15T09:57:18.854Z,94355.72
2017-12-15T09:59:46.527Z,94374.42
2017-12-15T10:02:14.245Z,94369.80
2017-12-15T10:04:41.789Z,94388.52
2017-12-15T10:07:09.654Z,94389.78
2017-12-15T10:09:37.257Z,94376.53
2017-12-15T10:12:04.827Z,94384.92
2017-12-15T10:14:32.367Z,94390.86
2017-12-15T10:16:59.925Z,94382.27
2017-12-15T10:19:27.796Z,94379.52
2017-12-15T10:21:56.469Z,94394.09
2017-12-15T10:24:24.430Z,94398.97
2017-12-15T10:26:51.997Z,94406.61
2017-12-15T10:29:20.027Z,94386.84
2017-12-15T10:31:47.555Z,94408.14
2017-12-15T10:34:15.440Z,94402.80
2017-12-15T10:36:42.992Z,94399.99
2017-12-15T10:39:10.704Z,94408.69
2017-12-15T10:41:38.283Z,94397.75
2017-12-15T10:44:05.811Z,94402.86
2017-12-15T10:46:33.385Z,94390.44
2017-12-15T10:49:00.935Z,94409.94
2017-12-15T10:51:28.488Z,94410.85
2017-12-15T10:53:56.045Z,94415.06
2017-12-15T10:56:23.589Z,94412.51
2017-12-15T10:58:51.130Z,94411.33
2017-12-15T11:01:18.848Z,94408.86
2017-12-15T11:03:46.905Z,94431.24
2017-12-15T11:06:14.474Z,94426.51
2017-12-15T11:08:42.359Z,94419.28
2017-12-15T11:11:09.994Z,94426.58
2017-12-15T11:13:38.596Z,94417.57
2017-12-15T11:16:06.169Z,94412.94
2017-12-15T11:18:33.710Z,94424.52
2017-12-15T11:21:01.248Z,94430.52
2017-12-15T11:23:28.896Z,94435.78
2017-12-15T11:25:56.436Z,94433.06
2017-12-15T11:28:23.998Z,94445.59
2017-12-15T11:30:52.301Z,94436.59
2017-12-15T11:33:20.140Z,94437.71
2017-12-15T11:35:47.709Z,94435.04
2017-12-15T11:38:15.291Z,94432.30
2017-12-15T11:40:43.747Z,94440.98
2017-12-15T11:43:11.361Z,94433.97
2017-12-15T11:45:38.978Z,94441.50
2017-12-15T11:48:08.469Z,94436.45
2017-12-15T11:50:36.125Z,94442.34
2017-12-15T11:53:03.717Z,94458.33
2017-12-15T11:55:31.313Z,94445.63
2017-12-15T11:57:58.861Z,94442.27
2017-12-15T12:00:26.441Z,94424.80
2017-12-15T12:02:54.006Z,94430.02
2017-12-15T12:05:21.574Z,94423.80
2017-12-15T12:07:49.134Z,94430.30
2017-12-15T12:10:16.682Z,94430.52
2017-12-15T12:12:44.233Z,94439.95
2017-12-15T12:15:12.363Z,94446.61
2017-12-15T12:17:39.993Z,94452.36
2017-12-15T12:20:07.569Z,94451.84
2017-12-15T12:22:35.121Z,94456.34
2017-12-15T12:25:02.680Z,94461.28
2017-12-15T12:27:30.270Z,94450.31
2017-12-15T12:29:57.841Z,94454.55
2017-12-15T12:32:25.414Z,94451.28
2017-12-15T12:34:52.983Z,94459.72
2017-12-15T12:37:20.587Z,94462.16
2017-12-15T12:39:48.113Z,94465.48
2017-12-15T12:42:15.651Z,94479.48
2017-12-15T12:44:43.226Z,94480.60
2017-12-15T12:47:11.504Z,94477.73
2017-12-15T12:49:39.104Z,94476.34
2017-12-15T12:52:07.625Z,94486.33
2017-12-15T12:54:35.164Z,94500.59
2017-12-15T12:57:02.734Z,94492.73
2017-12-15T12:59:30.321Z,94499.43
2017-12-15T13:01:57.856Z,94497.55
2017-12-15T13:04:25.445Z,94500.08
2017-12-15T13:06:53.023Z,94495.91
2017-12-15T13:09:21.057Z,94500.84
2017-12-15T13:11:48.734Z,94506.40
2017-12-15T13:14:16.407Z,94493.44
2017-12-15T13:16:43.955Z,94495.69
2017-12-15T13:22:02.604Z,94481.72
2017-12-15T13:24:30.148Z,94488.72
2017-12-15T13:26:57.700Z,94486.81
2017-12-15T13:29:25.366Z,94489.80
2017-12-15T13:31:52.934Z,94475.98
2017-12-15T13:34:20.473Z,94471.84
2017-12-15T13:36:48.077Z,94467.33
2017-12-15T13:39:15.620Z,94466.59
2017-12-15T13:41:43.159Z,94464.71
2017-12-15T13:44:10.793Z,94460.91
2017-12-15T13:46:38.365Z,94481.59
2017-12-15T13:49:06.069Z,94488.20
2017-12-15T13:51:33.655Z,94488.59
2017-12-15T13:54:01.205Z,94484.36
2017-12-15T13:56:28.751Z,94484.13
2017-12-15T13:58:56.364Z,94478.79
2017-12-15T14:01:25.824Z,94476.64
2017-12-15T14:03:53.360Z,94470.42
2017-12-15T14:06:20.910Z,94476.77
2017-12-15T14:08:48.484Z,94496.91
2017-12-15T14:11:16.058Z,94505.11
2017-12-15T14:13:43.602Z,94493.95
2017-12-15T14:16:11.201Z,94492.08
2017-12-15T14:18:38.751Z,94490.66
2017-12-15T14:21:06.382Z,94491.27
2017-12-15T14:23:33.991Z,94495.24
2017-12-15T14:26:01.541Z,94498.27
2017-12-15T14:28:29.098Z,94496.80
2017-12-15T14:30:56.669Z,94497.16
2017-12-15T14:33:24.222Z,94510.41
2017-12-15T14:35:51.823Z,94514.22
2017-12-15T14:38:19.395Z,94505.84
2017-12-15T14:40:46.942Z,94502.20
2017-12-15T14:43:14.876Z,94501.35
2017-12-15T14:45:42.447Z,94505.20
2017-12-15T14:48:09.992Z,94517.71
2017-12-15T14:50:37.541Z,94517.09
2017-12-15T14:53:05.211Z,94523.18
2017-12-15T14:55:33.253Z,94522.31
2017-12-15T14:58:00.828Z,94513.76
2017-12-15T15:00:28.425Z,94515.85
2017-12-15T15:02:55.966Z,94517.90
2017-12-15T15:05:23.915Z,94528.25
2017-12-15T15:07:51.895Z,94539.86
2017-12-15T15:10:19.424Z,94546.77
2017-12-15T15:12:47.635Z,94538.25
2017-12-15T15:15:16.024Z,94537.27
2017-12-15T15:17:44.889Z,94529.31
2017-12-15T15:20:12.583Z,94535.42
2017-12-15T15:22:40.195Z,94536.95
2017-12-15T15:25:07.900Z,94540.06
2017-12-15T15:27:35.826Z,94541.70
2017-12-15T15:30:03.377Z,94545.84
2017-12-15T15:32:30.924Z,94554.78
2017-12-15T15:37:49.947Z,94546.05
2017-12-15T15:40:17.504Z,94543.39
2017-12-15T15:42:45.094Z,94545.88
2017-12-15T15:45:12.924Z,94554.58
2017-12-15T15:47:40.467Z,94571.57
2017-12-15T15:50:08.061Z,94568.23
2017-12-15T15:52:37.634Z,94571.98
2017-12-15T15:55:05.198Z,94563.49
2017-12-15T15:57:33.451Z,94554.13
2017-12-15T16:00:02.229Z,94552.98
2017-12-15T16:02:29.845Z,94548.48
2017-12-15T16:04:57.390Z,94554.31
2017-12-15T16:07:25.739Z,94559.78
2017-12-15T16:09:53.352Z,94563.09
2017-12-15T16:12:20.915Z,94565.25
2017-12-15T16:14:48.512Z,94553.22
2017-12-15T16:17:16.072Z,94557.42
2017-12-15T16:19:43.626Z,94561.84
2017-12-15T16:22:11.204Z,94565.52
2017-12-15T16:24:38.796Z,94573.72
2017-12-15T16:27:06.464Z,94569.39
2017-12-15T16:29:34.052Z,94564.47
2017-12-15T16:32:01.629Z,94555.89
2017-12-15T16:34:29.189Z,94548.12
2017-12-15T16:36:56.772Z,94559.87
2017-12-15T16:39:24.337Z,94568.53
2017-12-15T16:41:51.902Z,94569.18
2017-12-15T16:44:19.484Z,94565.20
2017-12-15T16:46:47.036Z,94570.17
2017-12-15T16:49:14.631Z,94588.57
2017-12-15T16:51:42.194Z,94579.77
2017-12-15T16:54:09.844Z,94580.00
2017-12-15T16:56:37.404Z,94565.60
2017-12-15T16:59:04.984Z,94567.69
2017-12-15T17:01:32.541Z,94550.75
2017-12-15T17:04:00.143Z,94544.20
2017-12-15T17:09:18.026Z,94531.70
2017-12-15T17:11:45.606Z,94527.19
2017-12-15T17:14:13.161Z,94542.60
2017-12-15T17:16:40.744Z,94559.92
2017-12-15T17:19:27.825Z,94567.18
2017-12-15T17:21:55.422Z,94578.69
2017-12-15T17:24:22.971Z,94584.13
2017-12-15T17:26:50.536Z,94582.98
2017-12-15T17:29:18.230Z,94580.07
2017-12-15T17:31:45.780Z,94566.84
2017-12-15T17:34:13.349Z,94561.80
2017-12-15T17:36:41.216Z,94561.98
2017-12-15T17:39:08.932Z,94567.04
2017-12-15T17:41:37.374Z,94577.80
2017-12-15T17:44:04.996Z,94578.93
2017-12-15T17:46:32.556Z,94570.08
2017-12-15T17:49:00.168Z,94577.89
2017-12-15T17:51:27.833Z,94580.79
2017-12-15T17:53:55.411Z,94571.64
2017-12-15T17:56:23.615Z,94580.56
2017-12-15T17:58:51.224Z,94602.37
2017-12-15T18:01:18.768Z,94599.77
2017-12-15T18:03:46.309Z,94592.79
2017-12-15T18:06:13.932Z,94585.02
2017-12-15T18:08:41.539Z,94598.44
2017-12-15T18:11:09.629Z,94606.88
2017-12-15T18:13:37.243Z,94614.27
2017-12-15T18:16:04.805Z,94611.55
2017-12-15T18:18:32.376Z,94606.98
2017-12-15T18:20:59.952Z,94597.55
2017-12-15T18:23:28.305Z,94607.05
2017-12-15T18:25:55.864Z,94597.71
2017-12-15T18:28:23.426Z,94574.75
2017-12-15T18:30:51.015Z,94596.99
2017-12-15T18:33:18.905Z,94605.28
2017-12-15T18:35:46.464Z,94584.69
2017-12-15T18:38:14.057Z,94577.09
2017-12-15T18:40:41.601Z,94573.97
2017-12-15T18:43:09.625Z,94563.50
2017-12-15T18:45:37.296Z,94566.77
2017-12-15T18:48:04.913Z,94561.77
2017-12-15T18:50:32.430Z,94567.97
2017-12-15T18:53:00.406Z,94563.99
2017-12-15T18:55:27.972Z,94556.52
2017-12-15T18:57:55.537Z,94567.00
2017-12-15T19:00:23.181Z,94566.78
2017-12-15T19:02:50.773Z,94571.27
2017-12-15T19:05:18.550Z,94574.46
2017-12-15T19:07:46.119Z,94567.14
2017-12-15T19:10:13.681Z,94568.70
2017-12-15T19:12:41.605Z,94569.70
2017-12-15T19:15:09.584Z,94558.52
2017-12-15T19:17:37.337Z,94559.52
2017-12-15T19:20:04.895Z,94556.88
2017-12-15T19:22:32.485Z,94555.01
2017-12-15T19:25:00.042Z,94550.34
2017-12-15T19:27:27.652Z,94549.52
2017-12-15T19:29:55.258Z,94561.86
2017-12-15T19:32:22.821Z,94556.08
2017-12-15T19:34:50.382Z,94545.29
2017-12-15T19:37:18.028Z,94533.36
2017-12-15T19:39:45.611Z,94540.16
2017-12-15T19:42:14.221Z,94542.16
2017-12-15T19:44:41.796Z,94546.01
2017-12-15T19:47:09.396Z,94548.11
2017-12-15T19:49:36.962Z,94544.37
2017-12-15T19:52:04.603Z,94543.70
2017-12-15T19:54:32.183Z,94540.34
2017-12-15T19:57:01.615Z,94560.13
2017-12-15T19:59:29.214Z,94572.08
2017-12-15T20:01:56.793Z,94570.16
2017-12-15T20:04:24.929Z,94563.67
2017-12-15T20:06:52.553Z,94561.70
2017-12-15T20:09:20.110Z,94575.05
2017-12-15T20:11:47.670Z,94584.69
2017-12-15T20:14:15.242Z,94579.38
2017-12-15T20:16:42.804Z,94576.91
2017-12-15T20:19:10.583Z,94573.45
2017-12-15T20:21:38.153Z,94576.97
2017-12-15T20:24:05.738Z,94579.98
2017-12-15T20:26:33.285Z,94585.61
2017-12-15T20:29:00.865Z,94585.06
2017-12-15T20:31:29.085Z,94587.52
2017-12-15T20:33:56.651Z,94589.99
2017-12-15T20:36:24.213Z,94596.25
2017-12-15T20:38:51.784Z,94596.02
2017-12-15T20:41:19.329Z,94600.55
2017-12-15T20:43:46.879Z,94601.41
2017-12-15T20:46:14.470Z,94603.95
2017-12-15T20:48:42.061Z,94591.33
2017-12-15T20:51:10.014Z,94585.83
2017-12-15T20:53:37.627Z,94590.52
2017-12-15T20:56:05.189Z,94592.56
2017-12-15T20:58:32.761Z,94602.36
2017-12-15T21:01:00.374Z,94599.20
2017-12-15T21:03:28.016Z,94591.41
2017-12-15T21:05:55.684Z,94578.80
2017-12-15T21:08:23.238Z,94581.23
2017-12-15T21:10:50.795Z,94580.05
2017-12-15T21:13:18.387Z,94585.77
2017-12-15T21:15:45.933Z,94581.20
2017-12-15T21:18:13.486Z,94580.38
2017-12-15T21:20:41.068Z,94589.60
2017-12-15T21:23:08.791Z,94580.70
2017-12-15T21:25:36.398Z,94579.77
2017-12-15T21:28:03.970Z,94578.44
2017-12-15T21:30:32.023Z,94578.58
2017-12-15T21:32:59.605Z,94581.77
2017-12-15T21:35:27.197Z,94576.28
2017-12-15T21:37:54.776Z,94566.13
2017-12-15T21:40:22.468Z,94575.93
2017-12-15T21:42:50.062Z,94592.30
2017-12-15T21:45:17.612Z,94581.53
2017-12-15T21:47:45.150Z,94585.73
2017-12-15T21:50:12.751Z,94580.47
2017-12-15T21:52:40.318Z,94576.45
2017-12-15T21:55:07.881Z,94570.62
2017-12-15T21:57:36.647Z,94576.84
2017-12-15T22:00:04.565Z,94584.38
2017-12-15T22:02:32.130Z,94580.30
2017-12-15T22:04:59.672Z,94583.81
2017-12-15T22:07:27.260Z,94595.94
2017-12-15T22:09:54.866Z,94596.86
2017-12-15T22:12:22.404Z,94599.52
2017-12-15T22:14:49.965Z,94603.00
2017-12-15T22:20:08.559Z,94609.89
2017-12-15T22:22:36.108Z,94616.27
2017-12-15T22:25:03.665Z,94617.28
2017-12-15T22:27:31.235Z,94622.25
2017-12-15T22:29:58.806Z,94612.33
2017-12-15T22:38:08.500Z,94619.55
2017-12-15T22:40:36.062Z,94621.27
2017-12-15T22:43:03.624Z,94618.44
2017-12-15T22:45:31.224Z,94617.97
2017-12-15T22:47:58.818Z,94624.33
2017-12-15T22:50:26.369Z,94614.52
2017-12-15T22:52:53.932Z,94609.38
2017-12-15T22:55:21.496Z,94610.55
2017-12-15T22:57:49.077Z,94607.61
2017-12-15T23:00:16.648Z,94613.16
2017-12-15T23:02:44.207Z,94612.69
2017-12-15T23:05:11.786Z,94608.50
2017-12-15T23:07:39.339Z,94607.38
2017-12-15T23:10:06.898Z,94601.55
2017-12-15T23:12:34.477Z,94599.84
2017-12-15T23:15:02.028Z,94604.75
2017-12-15T23:17:29.574Z,94601.89
2017-12-15T23:19:57.140Z,94600.83
2017-12-15T23:22:24.676Z,94588.25
2017-12-15T23:24:52.224Z,94587.00
2017-12-15T23:27:19.790Z,94579.33
2017-12-15T23:29:47.343Z,94570.78
2017-12-15T23:32:14.893Z,94580.77
2017-12-15T23:34:42.479Z,94582.36
2017-12-15T23:37:12.190Z,94584.50
2017-12-15T23:39:39.861Z,94583.04
2017-12-15T23:42:07.438Z,94591.61
2017-12-15T23:44:34.981Z,94588.47
2017-12-15T23:47:02.549Z,94584.48
2017-12-15T23:49:30.172Z,94584.70
2017-12-15T23:51:57.719Z,94585.50
2017-12-15T23:54:37.046Z,94583.88
2017-12-15T23:57:04.711Z,94589.95
2017-12-15T23:59:32.265Z,94581.60
